Carricitos, Texas
Current Conditions -  °F | °C
As of 4:52 AM on Wednesday 22 Oct 2014 (Local Time) from KHRL Reporting Station
Clear Clear  
Wind Chill: 73°   Ceiling: Unl
Heat Index: 73°   Visibility: 10mi
Dew Point: 71°   Wind: 7mph
Humidity: 93%   Direction: 50°NE
Pressure: 29.93"   Gusts: NA
Location:  26.1784°N, 97.6678°W
Report Text: KHRL 220952Z AUTO 05006KT 10SM CLR 23/22 A2993 RMK AO2 SLP134 P0001 T02280217
Loading
Personal Weather Stations






























Interactive Weather Map
Tropical Storm Tracking
New forecast layout! Learn more

10-Day Weather Forecast

Advertisements
Track Severe Weather on mobile